createdAt,value
2023-05-09T00:01:31.271Z,98834.78
2023-05-09T00:04:35.394Z,98836.97
2023-05-09T00:07:38.267Z,98844.88
2023-05-09T00:10:40.881Z,98830.84
2023-05-09T00:13:44.089Z,98838.44
2023-05-09T00:16:46.924Z,98827.63
2023-05-09T00:19:51.520Z,98831.28
2023-05-09T00:22:55.299Z,98831.28
2023-05-09T00:25:58.051Z,98825.63
2023-05-09T00:29:00.565Z,98828.03
2023-05-09T00:32:03.720Z,98814.19
2023-05-09T00:35:09.921Z,98812.34
2023-05-09T00:38:12.477Z,98810.75
2023-05-09T00:41:15.038Z,98806.66
2023-05-09T00:44:17.619Z,98813.47
2023-05-09T00:47:24.138Z,98814.94
2023-05-09T00:50:28.307Z,98803.41
2023-05-09T00:53:31.074Z,98808.00
2023-05-09T00:56:33.640Z,98799.16
2023-05-09T00:59:36.155Z,98794.72
2023-05-09T01:02:38.770Z,98793.38
2023-05-09T01:05:48.301Z,98790.41
2023-05-09T01:08:57.609Z,98787.16
2023-05-09T01:12:08.380Z,98776.66
2023-05-09T01:15:13.802Z,98782.38
2023-05-09T01:18:32.204Z,98780.19
2023-05-09T01:21:36.605Z,98781.94
2023-05-09T01:24:57.215Z,98773.78
2023-05-09T01:28:09.081Z,98775.38
2023-05-09T01:31:13.586Z,98777.31
2023-05-09T01:34:17.748Z,98777.44
2023-05-09T01:37:25.537Z,98775.28
2023-05-09T01:40:32.206Z,98776.44
2023-05-09T01:43:35.716Z,98772.75
2023-05-09T01:46:40.587Z,98763.00
2023-05-09T01:49:44.284Z,98771.03
2023-05-09T01:52:48.956Z,98764.50
2023-05-09T01:55:52.256Z,98762.66
2023-05-09T01:58:57.214Z,98757.06
2023-05-09T02:02:01.349Z,98759.81
2023-05-09T02:05:04.320Z,98748.47
2023-05-09T02:08:07.298Z,98748.03
2023-05-09T02:11:09.864Z,98759.69
2023-05-09T02:14:12.385Z,98757.50
2023-05-09T02:17:17.028Z,98761.41
2023-05-09T02:20:19.718Z,98765.09
2023-05-09T02:23:22.388Z,98761.75
2023-05-09T02:26:25.780Z,98765.53
2023-05-09T02:29:29.352Z,98766.91
2023-05-09T02:32:35.261Z,98772.03
2023-05-09T02:35:38.227Z,98757.19
2023-05-09T02:38:42.147Z,98765.75
2023-05-09T02:41:49.270Z,98757.97
2023-05-09T02:44:51.956Z,98754.16
2023-05-09T02:47:55.968Z,98752.13
2023-05-09T02:50:58.687Z,98748.94
2023-05-09T02:54:01.281Z,98746.50
2023-05-09T02:57:03.978Z,98744.91
2023-05-09T03:00:09.452Z,98735.06
2023-05-09T03:03:13.627Z,98733.34
2023-05-09T03:06:16.325Z,98725.81
2023-05-09T03:09:18.825Z,98731.97
2023-05-09T03:12:21.303Z,98728.31
2023-05-09T03:15:24.524Z,98732.22
2023-05-09T03:18:28.425Z,98725.09
2023-05-09T03:21:31.910Z,98727.06
2023-05-09T03:24:34.248Z,98727.97
2023-05-09T03:27:37.075Z,98729.22
2023-05-09T03:30:39.672Z,98724.09
2023-05-09T03:33:43.640Z,98718.22
2023-05-09T03:36:46.238Z,98716.19
2023-05-09T03:39:48.864Z,98713.66
2023-05-09T03:42:51.458Z,98708.97
2023-05-09T03:45:54.355Z,98710.44
2023-05-09T03:48:58.289Z,98703.34
2023-05-09T03:52:00.835Z,98705.31
2023-05-09T03:55:03.411Z,98704.72
2023-05-09T03:58:06.246Z,98701.75
2023-05-09T04:01:08.855Z,98701.09
2023-05-09T04:04:13.076Z,98706.09
2023-05-09T04:07:15.714Z,98707.38
2023-05-09T04:10:18.500Z,98709.06
2023-05-09T04:13:21.351Z,98703.34
2023-05-09T04:16:24.044Z,98705.06
2023-05-09T04:19:27.952Z,98701.97
2023-05-09T04:22:30.594Z,98698.53
2023-05-09T04:25:34.508Z,98701.03
2023-05-09T04:28:37.090Z,98697.59
2023-05-09T04:31:39.832Z,98702.50
2023-05-09T04:34:43.794Z,98715.66
2023-05-09T04:37:46.508Z,98705.94
2023-05-09T04:40:48.991Z,98714.72
2023-05-09T04:43:51.836Z,98711.84
2023-05-09T04:46:55.082Z,98720.97
2023-05-09T04:49:59.041Z,98720.78
2023-05-09T04:53:01.610Z,98717.72
2023-05-09T04:56:04.195Z,98718.19
2023-05-09T04:59:07.022Z,98713.84
2023-05-09T05:02:09.537Z,98725.66
2023-05-09T05:05:13.621Z,98720.25
2023-05-09T05:08:16.255Z,98719.03
2023-05-09T05:11:19.134Z,98706.94
2023-05-09T05:14:22.115Z,98708.00
2023-05-09T05:17:24.864Z,98711.09
2023-05-09T05:20:28.973Z,98708.19
2023-05-09T05:23:31.539Z,98707.38
2023-05-09T05:26:34.088Z,98709.31
2023-05-09T05:29:36.582Z,98704.00
2023-05-09T05:32:39.281Z,98700.31
2023-05-09T05:35:43.214Z,98694.09
2023-05-09T05:38:45.867Z,98690.22
2023-05-09T05:41:48.424Z,98691.53
2023-05-09T05:44:51.170Z,98697.00
2023-05-09T05:47:54.447Z,98696.50
2023-05-09T05:50:58.584Z,98696.94
2023-05-09T05:54:01.432Z,98695.31
2023-05-09T05:57:04.045Z,98687.53
2023-05-09T06:00:10.437Z,98685.41
2023-05-09T06:03:14.339Z,98690.44
2023-05-09T06:06:18.381Z,98696.72
2023-05-09T06:09:20.862Z,98680.88
2023-05-09T06:12:23.577Z,98678.88
2023-05-09T06:15:26.173Z,98681.47
2023-05-09T06:18:29.204Z,98676.66
2023-05-09T06:21:34.166Z,98671.66
2023-05-09T06:24:36.799Z,98676.28
2023-05-09T06:27:39.338Z,98669.44
2023-05-09T06:30:41.861Z,98669.38
2023-05-09T06:33:44.381Z,98672.38
2023-05-09T06:36:48.650Z,98668.63
2023-05-09T06:39:51.537Z,98669.38
2023-05-09T06:42:54.077Z,98668.69
2023-05-09T06:45:56.804Z,98658.94
2023-05-09T06:49:01.637Z,98665.25
2023-05-09T06:52:05.857Z,98654.00
2023-05-09T06:55:09.976Z,98659.22
2023-05-09T06:58:12.697Z,98661.56
2023-05-09T07:01:15.519Z,98662.59
2023-05-09T07:04:18.074Z,98655.22
2023-05-09T07:07:22.135Z,98649.97
2023-05-09T07:10:24.702Z,98638.25
2023-05-09T07:13:27.572Z,98639.09
2023-05-09T07:16:30.471Z,98635.81
2023-05-09T07:19:32.956Z,98636.56
2023-05-09T07:22:37.791Z,98634.38
2023-05-09T07:25:40.582Z,98622.91
2023-05-09T07:28:43.113Z,98618.91
2023-05-09T07:31:45.727Z,98605.44
2023-05-09T07:34:48.631Z,98597.84
2023-05-09T07:37:52.800Z,98589.78
2023-05-09T07:40:55.555Z,98587.44
2023-05-09T07:43:58.391Z,98583.50
2023-05-09T07:47:02.643Z,98573.91
2023-05-09T07:50:05.802Z,98569.97
2023-05-09T07:53:09.905Z,98561.84
2023-05-09T07:56:13.541Z,98557.56
2023-05-09T07:59:16.992Z,98560.88
2023-05-09T08:02:19.768Z,98561.31
2023-05-09T08:05:22.294Z,98554.13
2023-05-09T08:08:27.146Z,98555.28
2023-05-09T08:11:29.760Z,98528.75
2023-05-09T08:14:32.344Z,98526.38
2023-05-09T08:17:35.145Z,98525.56
2023-05-09T08:20:37.840Z,98525.16
2023-05-09T08:23:41.741Z,98523.00
2023-05-09T08:26:45.301Z,98506.50
2023-05-09T08:29:47.859Z,98510.91
2023-05-09T08:32:50.380Z,98507.75
2023-05-09T08:35:52.994Z,98497.81
2023-05-09T08:38:56.915Z,98500.13
2023-05-09T08:42:00.506Z,98491.22
2023-05-09T08:45:07.676Z,98481.38
2023-05-09T08:48:10.870Z,98481.00
2023-05-09T08:51:13.772Z,98484.47
2023-05-09T08:54:17.791Z,98479.91
2023-05-09T08:57:20.904Z,98486.22
2023-05-09T09:00:23.467Z,98498.00
2023-05-09T09:03:26.459Z,98488.97
2023-05-09T09:06:30.049Z,98484.25
2023-05-09T09:09:34.709Z,98489.66
2023-05-09T09:12:38.160Z,98482.81
2023-05-09T09:15:42.463Z,98482.44
2023-05-09T09:18:45.847Z,98475.81
2023-05-09T09:21:51.267Z,98467.00
2023-05-09T09:24:55.332Z,98458.50
2023-05-09T09:27:57.877Z,98459.91
2023-05-09T09:31:00.452Z,98455.22
2023-05-09T09:34:03.484Z,98457.94
2023-05-09T09:37:06.950Z,98450.63
2023-05-09T09:40:11.680Z,98441.38
2023-05-09T09:43:14.216Z,98445.38
2023-05-09T09:46:18.290Z,98435.34
2023-05-09T09:49:22.448Z,98428.59
2023-05-09T09:52:25.934Z,98423.94
2023-05-09T09:55:29.927Z,98417.56
2023-05-09T09:58:32.588Z,98411.34
2023-05-09T10:01:35.456Z,98397.38
2023-05-09T10:04:38.718Z,98393.84
2023-05-09T10:07:41.313Z,98398.31
2023-05-09T10:10:45.459Z,98390.09
2023-05-09T10:13:48.268Z,98382.88
2023-05-09T10:16:51.449Z,98374.56
2023-05-09T10:19:54.165Z,98367.41
2023-05-09T10:22:58.658Z,98366.88
2023-05-09T10:26:07.261Z,98361.63
2023-05-09T10:29:11.759Z,98357.31
2023-05-09T10:32:17.628Z,98344.56
2023-05-09T10:35:21.825Z,98336.44
2023-05-09T10:38:24.936Z,98336.38
2023-05-09T10:41:29.587Z,98324.09
2023-05-09T10:44:32.369Z,98327.50
2023-05-09T10:47:35.113Z,98324.03
2023-05-09T10:50:40.302Z,98319.09
2023-05-09T10:53:44.502Z,98319.59
2023-05-09T10:56:48.516Z,98308.34
2023-05-09T10:59:52.424Z,98301.22
2023-05-09T11:03:07.358Z,98299.50
2023-05-09T11:06:10.126Z,98298.13
2023-05-09T11:09:27.101Z,98283.25
2023-05-09T11:12:32.122Z,98282.16
2023-05-09T11:15:34.797Z,98271.63
2023-05-09T11:18:51.138Z,98265.13
2023-05-09T11:22:01.813Z,98257.00
2023-05-09T11:25:05.994Z,98244.25
2023-05-09T11:28:11.761Z,98243.19
2023-05-09T11:31:16.136Z,98242.19
2023-05-09T11:34:21.529Z,98235.41
2023-05-09T11:37:24.610Z,98222.09
2023-05-09T11:40:28.075Z,98226.38
2023-05-09T11:43:32.221Z,98220.13
2023-05-09T11:46:34.744Z,98217.66
2023-05-09T11:49:37.325Z,98205.47
2023-05-09T11:52:40.809Z,98205.78
2023-05-09T11:55:43.384Z,98202.94
2023-05-09T11:58:47.302Z,98205.13
2023-05-09T12:01:49.925Z,98197.56
2023-05-09T12:04:52.378Z,98190.06
2023-05-09T12:07:55.195Z,98188.03
2023-05-09T12:11:08.920Z,98179.38
2023-05-09T12:14:12.793Z,98176.53
2023-05-09T12:17:15.377Z,98172.03
2023-05-09T12:20:17.771Z,98168.09
2023-05-09T12:23:20.883Z,98153.84
2023-05-09T12:26:23.635Z,98149.13
2023-05-09T12:29:28.134Z,98140.09
2023-05-09T12:32:32.969Z,98138.38
2023-05-09T12:35:36.405Z,98134.41
2023-05-09T12:38:39.156Z,98125.59
2023-05-09T12:41:57.500Z,98117.59
2023-05-09T12:45:06.151Z,98111.06
2023-05-09T12:48:09.610Z,98110.88
2023-05-09T12:51:12.283Z,98110.56
2023-05-09T12:54:14.958Z,98105.19
2023-05-09T12:57:24.262Z,98095.34
2023-05-09T13:00:28.398Z,98095.53
2023-05-09T13:03:37.700Z,98084.56
2023-05-09T13:06:49.225Z,98077.03
2023-05-09T13:09:57.918Z,98080.34
2023-05-09T13:13:00.640Z,98070.69
2023-05-09T13:16:05.995Z,98069.88
2023-05-09T13:19:09.473Z,98059.53
2023-05-09T13:22:12.473Z,98048.59
2023-05-09T13:25:16.069Z,98044.56
2023-05-09T13:28:18.577Z,98035.09
2023-05-09T13:31:22.761Z,98035.41
2023-05-09T13:34:25.765Z,98032.09
2023-05-09T13:37:28.590Z,98024.41
2023-05-09T13:40:31.132Z,98024.66
2023-05-09T13:43:33.848Z,98008.53
2023-05-09T13:46:38.052Z,98008.81
2023-05-09T13:49:40.645Z,98002.81
2023-05-09T13:52:43.410Z,98002.63
2023-05-09T13:55:46.344Z,98000.50
2023-05-09T13:58:49.017Z,98006.91
2023-05-09T14:01:52.923Z,97997.81
2023-05-09T14:04:55.519Z,97998.91
2023-05-09T14:07:58.225Z,97980.38
2023-05-09T14:11:00.563Z,97976.69
2023-05-09T14:14:03.214Z,97985.63
2023-05-09T14:17:07.101Z,97966.97
2023-05-09T14:20:10.608Z,97973.06
2023-05-09T14:23:13.475Z,97966.56
2023-05-09T14:26:16.111Z,97971.16
2023-05-09T14:29:18.695Z,97958.72
2023-05-09T14:32:22.691Z,97965.97
2023-05-09T14:35:25.454Z,97971.47
2023-05-09T14:38:28.074Z,97963.78
2023-05-09T14:41:31.751Z,97964.13
2023-05-09T14:44:34.351Z,97965.72
2023-05-09T14:47:38.431Z,97955.91
2023-05-09T14:50:41.037Z,97956.69
2023-05-09T14:53:43.583Z,97940.53
2023-05-09T14:56:46.259Z,97930.97
2023-05-09T14:59:48.840Z,97926.81
2023-05-09T15:02:52.800Z,97930.84
2023-05-09T15:05:55.370Z,97920.53
2023-05-09T15:08:57.995Z,97918.53
2023-05-09T15:12:01.866Z,97913.53
2023-05-09T15:15:13.946Z,97907.34
2023-05-09T15:18:18.466Z,97899.09
2023-05-09T15:21:21.116Z,97904.47
2023-05-09T15:24:23.815Z,97897.88
2023-05-09T15:27:26.336Z,97899.44
2023-05-09T15:30:29.106Z,97891.38
2023-05-09T15:33:33.209Z,97887.22
2023-05-09T15:36:35.733Z,97881.56
2023-05-09T15:39:43.246Z,97876.47
2023-05-09T15:42:48.153Z,97874.66
2023-05-09T15:45:51.168Z,97871.31
2023-05-09T15:48:56.230Z,97867.19
2023-05-09T15:51:58.785Z,97860.41
2023-05-09T15:55:01.565Z,97860.53
2023-05-09T15:58:04.059Z,97867.81
2023-05-09T16:01:07.998Z,97855.56
2023-05-09T16:04:13.862Z,97854.50
2023-05-09T16:07:16.422Z,97858.94
2023-05-09T16:10:19.023Z,97848.44
2023-05-09T16:13:22.373Z,97848.59
2023-05-09T16:16:25.137Z,97837.78
2023-05-09T16:19:29.519Z,97845.53
2023-05-09T16:22:32.144Z,97841.47
2023-05-09T16:25:35.519Z,97841.78
2023-05-09T16:28:40.103Z,97839.75
2023-05-09T16:31:44.837Z,97826.34
2023-05-09T16:34:49.177Z,97826.78
2023-05-09T16:37:51.866Z,97827.31
2023-05-09T16:40:54.753Z,97814.53
2023-05-09T16:43:57.397Z,97816.63
2023-05-09T16:47:01.046Z,97816.03
2023-05-09T16:50:05.713Z,97810.13
2023-05-09T16:53:08.456Z,97807.81
2023-05-09T16:56:11.382Z,97802.22
2023-05-09T16:59:14.208Z,97796.88
2023-05-09T17:02:17.049Z,97802.56
2023-05-09T17:05:21.430Z,97797.63
2023-05-09T17:08:24.164Z,97799.34
2023-05-09T17:11:27.235Z,97797.16
2023-05-09T17:14:29.810Z,97796.94
2023-05-09T17:17:32.552Z,97808.81
2023-05-09T17:20:36.689Z,97810.94
2023-05-09T17:23:39.274Z,97815.91
2023-05-09T17:26:41.805Z,97816.50
2023-05-09T17:29:44.461Z,97823.13
2023-05-09T17:32:47.162Z,97819.91
2023-05-09T17:35:51.212Z,97830.81
2023-05-09T17:38:53.908Z,97840.97
2023-05-09T17:41:56.519Z,97850.53
2023-05-09T17:44:59.183Z,97863.97
2023-05-09T17:48:02.337Z,97861.59
2023-05-09T17:51:06.441Z,97875.81
2023-05-09T17:54:10.372Z,97882.94
2023-05-09T17:57:13.057Z,97888.44
2023-05-09T18:00:16.756Z,97884.50
2023-05-09T18:03:19.662Z,97876.59
2023-05-09T18:06:24.017Z,97878.53
2023-05-09T18:09:26.571Z,97874.44
2023-05-09T18:12:31.056Z,97869.63
2023-05-09T18:15:37.877Z,97883.38
2023-05-09T18:18:40.631Z,97875.47
2023-05-09T18:21:44.556Z,97881.03
2023-05-09T18:24:47.078Z,97886.50
2023-05-09T18:27:49.745Z,97882.09
2023-05-09T18:30:54.484Z,97885.25
2023-05-09T18:33:57.066Z,97884.50
2023-05-09T18:37:00.974Z,97895.06
2023-05-09T18:40:05.172Z,97888.75
2023-05-09T18:43:07.928Z,97895.00
2023-05-09T18:46:10.882Z,97895.81
2023-05-09T18:49:13.368Z,97898.50
2023-05-09T18:52:19.038Z,97900.13
2023-05-09T18:55:22.305Z,97902.88
2023-05-09T18:58:25.504Z,97897.41
2023-05-09T19:01:28.067Z,97897.38
2023-05-09T19:04:30.898Z,97903.31
2023-05-09T19:07:34.953Z,97905.94
2023-05-09T19:10:37.984Z,97914.94
2023-05-09T19:13:48.088Z,97907.91
2023-05-09T19:16:51.369Z,97911.47
2023-05-09T19:19:53.803Z,97909.78
2023-05-09T19:22:57.677Z,97917.53
2023-05-09T19:26:00.268Z,97919.47
2023-05-09T19:29:07.811Z,97924.22
2023-05-09T19:32:10.468Z,97925.44
2023-05-09T19:35:13.027Z,97922.25
2023-05-09T19:38:17.099Z,97934.09
2023-05-09T19:41:19.886Z,97926.56
2023-05-09T19:44:22.531Z,97928.94
2023-05-09T19:47:25.197Z,97934.81
2023-05-09T19:50:27.742Z,97934.34
2023-05-09T19:53:31.661Z,97931.50
2023-05-09T19:56:34.215Z,97929.88
2023-05-09T19:59:36.742Z,97930.56
2023-05-09T20:02:39.874Z,97932.06
2023-05-09T20:05:42.589Z,97927.16
2023-05-09T20:08:47.002Z,97933.50
2023-05-09T20:11:50.495Z,97931.41
2023-05-09T20:14:53.164Z,97932.47
2023-05-09T20:17:56.038Z,97932.34
2023-05-09T20:20:58.637Z,97923.28
2023-05-09T20:24:03.027Z,97922.00
2023-05-09T20:27:05.614Z,97925.25
2023-05-09T20:30:09.237Z,97927.59
2023-05-09T20:33:11.727Z,97925.09
2023-05-09T20:36:15.350Z,97926.59
2023-05-09T20:39:19.425Z,97930.59
2023-05-09T20:42:23.184Z,97931.41
2023-05-09T20:45:26.004Z,97932.19
2023-05-09T20:48:28.670Z,97931.41
2023-05-09T20:51:31.531Z,97933.69
2023-05-09T20:54:35.368Z,97929.38
2023-05-09T20:57:37.909Z,97932.59
2023-05-09T21:00:40.492Z,97917.63
2023-05-09T21:03:43.223Z,97929.03
2023-05-09T21:06:45.905Z,97923.59
2023-05-09T21:09:50.845Z,97926.25
2023-05-09T21:12:53.840Z,97921.81
2023-05-09T21:15:56.341Z,97919.81
2023-05-09T21:19:02.494Z,97919.72
2023-05-09T21:22:05.203Z,97918.00
2023-05-09T21:25:10.071Z,97921.47
2023-05-09T21:28:14.369Z,97921.94
2023-05-09T21:31:16.978Z,97914.97
2023-05-09T21:34:19.552Z,97913.09
2023-05-09T21:37:22.106Z,97902.34
2023-05-09T21:40:26.009Z,97899.19
2023-05-09T21:43:28.913Z,97906.28
2023-05-09T21:46:32.816Z,97908.66
2023-05-09T21:49:35.337Z,97893.69
2023-05-09T21:52:37.927Z,97906.66
2023-05-09T21:55:41.889Z,97901.88
2023-05-09T21:58:44.498Z,97899.94
2023-05-09T22:01:47.291Z,97893.25
2023-05-09T22:04:50.295Z,97895.97
2023-05-09T22:07:52.871Z,97898.44
2023-05-09T22:10:56.771Z,97888.69
2023-05-09T22:13:59.479Z,97894.19
2023-05-09T22:17:02.062Z,97891.34
2023-05-09T22:20:05.819Z,97895.31
2023-05-09T22:23:08.471Z,97893.25
2023-05-09T22:26:12.304Z,97892.44
2023-05-09T22:29:16.482Z,97900.16
2023-05-09T22:32:19.067Z,97894.97
2023-05-09T22:35:21.556Z,97897.31
2023-05-09T22:38:24.364Z,97902.53
2023-05-09T22:41:28.495Z,97902.44
2023-05-09T22:44:32.335Z,97902.53
2023-05-09T22:47:35.097Z,97900.56
2023-05-09T22:50:37.683Z,97904.59
2023-05-09T22:53:40.210Z,97906.66
2023-05-09T22:56:44.527Z,97902.88
2023-05-09T22:59:47.172Z,97907.69
2023-05-09T23:02:49.899Z,97914.72
2023-05-09T23:05:52.820Z,97904.25
2023-05-09T23:08:55.292Z,97907.00
2023-05-09T23:11:59.525Z,97911.41
2023-05-09T23:15:02.035Z,97910.69
2023-05-09T23:18:04.948Z,97904.16
2023-05-09T23:21:07.543Z,97904.25
2023-05-09T23:24:10.049Z,97906.81
2023-05-09T23:27:13.926Z,97908.22
2023-05-09T23:30:16.793Z,97912.56
2023-05-09T23:33:19.514Z,97910.13
2023-05-09T23:36:22.148Z,97905.78
2023-05-09T23:39:24.639Z,97907.19
2023-05-09T23:42:28.835Z,97906.41
2023-05-09T23:45:31.364Z,97902.75
2023-05-09T23:48:33.905Z,97904.56
2023-05-09T23:51:36.405Z,97897.91
2023-05-09T23:54:39.780Z,97898.81
2023-05-09T23:57:43.583Z,97914.13
